createdAt,value
2023-11-23T00:01:37.685Z,101858.09
2023-11-23T00:04:05.470Z,101871.03
2023-11-23T00:06:37.876Z,101871.44
2023-11-23T00:09:13.346Z,101871.91
2023-11-23T00:14:58.400Z,101868.91
2023-11-23T00:17:23.981Z,101864.06
2023-11-23T00:20:00.562Z,101863.81
2023-11-23T00:22:27.864Z,101873.59
2023-11-23T00:25:06.342Z,101875.91
2023-11-23T00:27:37.536Z,101881.03
2023-11-23T00:30:33.148Z,101876.34
2023-11-23T00:33:34.056Z,101882.31
2023-11-23T00:36:09.132Z,101872.56
2023-11-23T00:38:42.498Z,101866.28
2023-11-23T00:42:36.502Z,101861.59
2023-11-23T00:45:40.848Z,101855.31
2023-11-23T00:49:09.981Z,101860.38
2023-11-23T00:52:19.174Z,101862.22
2023-11-23T00:54:48.757Z,101858.09
2023-11-23T00:57:24.719Z,101859.59
2023-11-23T00:59:55.849Z,101855.41
2023-11-23T01:03:20.859Z,101854.47
2023-11-23T01:05:57.071Z,101872.34
2023-11-23T01:09:12.814Z,101867.97
2023-11-23T01:12:06.767Z,101875.78
2023-11-23T01:14:42.674Z,101870.28
2023-11-23T01:17:23.039Z,101878.50
2023-11-23T01:20:24.465Z,101880.56
2023-11-23T01:25:34.543Z,101899.47
2023-11-23T01:28:48.996Z,101895.97
2023-11-23T01:31:27.365Z,101900.38
2023-11-23T01:34:02.630Z,101898.44
2023-11-23T01:36:33.621Z,101894.00
2023-11-23T01:39:04.314Z,101900.72
2023-11-23T01:41:37.863Z,101895.47
2023-11-23T01:44:28.818Z,101900.50
2023-11-23T01:47:53.763Z,101900.97
2023-11-23T01:51:52.843Z,101893.47
2023-11-23T01:55:16.555Z,101895.16
2023-11-23T01:59:00.420Z,101899.53
2023-11-23T02:06:50.402Z,101895.00
2023-11-23T02:10:20.151Z,101891.88
2023-11-23T02:14:35.739Z,101895.06
2023-11-23T02:18:33.959Z,101886.97
2023-11-23T02:22:08.502Z,101887.56
2023-11-23T02:33:57.926Z,101862.63
2023-11-23T02:38:11.202Z,101868.28
2023-11-23T02:41:29.688Z,101869.91
2023-11-23T02:45:17.376Z,101879.84
2023-11-23T02:47:52.659Z,101882.38
2023-11-23T02:54:00.446Z,101877.63
2023-11-23T02:56:56.853Z,101881.97
2023-11-23T02:59:48.470Z,101870.91
2023-11-23T03:02:29.199Z,101879.53
2023-11-23T03:05:01.989Z,101870.28
2023-11-23T03:07:55.350Z,101879.13
2023-11-23T03:10:37.524Z,101888.97
2023-11-23T03:13:13.453Z,101883.94
2023-11-23T03:16:42.760Z,101889.47
2023-11-23T03:19:51.706Z,101887.50
2023-11-23T03:22:29.483Z,101886.75
2023-11-23T03:25:31.422Z,101892.53
2023-11-23T03:28:10.501Z,101892.78
2023-11-23T03:30:44.585Z,101890.91
2023-11-23T03:33:16.208Z,101892.16
2023-11-23T03:35:51.968Z,101883.91
2023-11-23T03:38:19.670Z,101878.28
2023-11-23T03:41:02.548Z,101874.25
2023-11-23T03:43:32.035Z,101888.03
2023-11-23T03:46:23.490Z,101890.09
2023-11-23T03:48:57.414Z,101898.59
2023-11-23T03:51:27.553Z,101900.75
2023-11-23T03:56:56.950Z,101907.09
2023-11-23T03:59:31.745Z,101903.56
2023-11-23T04:01:58.834Z,101906.19
2023-11-23T04:04:34.946Z,101913.38
2023-11-23T04:07:14.657Z,101910.91
2023-11-23T04:09:42.102Z,101913.19
2023-11-23T04:12:21.878Z,101911.38
2023-11-23T04:15:03.694Z,101914.69
2023-11-23T04:17:42.029Z,101914.78
2023-11-23T04:20:50.390Z,101912.97
2023-11-23T04:23:17.799Z,101920.13
2023-11-23T04:25:47.893Z,101912.66
2023-11-23T04:28:15.023Z,101921.28
2023-11-23T04:30:45.112Z,101920.88
2023-11-23T04:33:12.749Z,101918.00
2023-11-23T04:35:46.054Z,101918.84
2023-11-23T04:38:16.027Z,101925.31
2023-11-23T04:40:43.173Z,101920.03
2023-11-23T04:43:10.168Z,101920.94
2023-11-23T04:45:37.151Z,101930.41
2023-11-23T04:48:06.163Z,101917.91
2023-11-23T04:50:34.557Z,101919.19
2023-11-23T04:53:01.906Z,101930.69
2023-11-23T04:55:31.996Z,101931.63
2023-11-23T04:57:59.095Z,101938.31
2023-11-23T05:00:27.395Z,101938.84
2023-11-23T05:02:55.646Z,101937.56
2023-11-23T05:05:22.904Z,101932.06
2023-11-23T05:07:50.552Z,101931.91
2023-11-23T05:10:19.059Z,101938.25
2023-11-23T05:12:51.551Z,101945.19
2023-11-23T05:15:22.724Z,101948.16
2023-11-23T05:17:56.783Z,101957.69
2023-11-23T05:20:27.050Z,101951.53
2023-11-23T05:22:54.407Z,101964.59
2023-11-23T05:25:30.186Z,101970.56
2023-11-23T05:28:03.135Z,101964.13
2023-11-23T05:30:34.056Z,101965.41
2023-11-23T05:33:06.598Z,101963.22
2023-11-23T05:35:40.034Z,101967.97
2023-11-23T05:38:13.139Z,101959.59
2023-11-23T05:40:58.167Z,101958.00
2023-11-23T05:43:29.461Z,101955.69
2023-11-23T05:46:05.858Z,101945.03
2023-11-23T05:48:39.138Z,101936.41
2023-11-23T05:51:10.814Z,101943.59
2023-11-23T05:53:49.974Z,101935.94
2023-11-23T05:56:37.408Z,101939.75
2023-11-23T05:59:04.892Z,101945.28
2023-11-23T06:01:32.772Z,101942.34
2023-11-23T06:04:05.612Z,101944.75
2023-11-23T06:06:35.900Z,101949.88
2023-11-23T06:09:10.939Z,101947.38
2023-11-23T06:11:38.269Z,101947.41
2023-11-23T06:14:06.058Z,101955.00
2023-11-23T06:16:33.430Z,101955.09
2023-11-23T06:19:03.571Z,101959.78
2023-11-23T06:21:34.729Z,101967.13
2023-11-23T06:24:01.983Z,101976.94
2023-11-23T06:26:33.153Z,101971.69
2023-11-23T06:29:01.086Z,101979.09
2023-11-23T06:31:28.934Z,101982.91
2023-11-23T06:33:56.144Z,101993.09
2023-11-23T06:36:23.362Z,102001.56
2023-11-23T06:38:53.999Z,101994.84
2023-11-23T06:41:26.967Z,102000.22
2023-11-23T06:43:54.633Z,101998.34
2023-11-23T06:46:22.153Z,102002.81
2023-11-23T06:48:49.303Z,102003.22
2023-11-23T06:51:16.686Z,101999.13
2023-11-23T06:53:47.994Z,102007.31
2023-11-23T06:56:18.798Z,102001.53
2023-11-23T06:58:49.379Z,101997.44
2023-11-23T07:01:17.136Z,102001.41
2023-11-23T07:03:48.087Z,101999.06
2023-11-23T07:06:15.491Z,102004.78
2023-11-23T07:08:42.899Z,102006.91
2023-11-23T07:11:14.261Z,102008.44
2023-11-23T07:13:44.852Z,102007.13
2023-11-23T07:16:18.971Z,102006.03
2023-11-23T07:18:54.045Z,101999.59
2023-11-23T07:21:36.776Z,102000.63
2023-11-23T07:24:13.323Z,101998.53
2023-11-23T07:26:40.779Z,101991.66
2023-11-23T07:29:07.950Z,101988.75
2023-11-23T07:31:34.975Z,101991.03
2023-11-23T07:34:07.329Z,101990.91
2023-11-23T07:36:55.226Z,101994.63
2023-11-23T07:39:48.657Z,102002.22
2023-11-23T07:42:17.332Z,102002.94
2023-11-23T07:44:50.557Z,102005.03
2023-11-23T07:47:17.572Z,102004.09
2023-11-23T07:49:47.293Z,102003.94
2023-11-23T07:52:16.189Z,102013.94
2023-11-23T07:54:45.850Z,102000.56
2023-11-23T07:57:13.017Z,101999.19
2023-11-23T07:59:40.497Z,102005.22
2023-11-23T08:02:07.839Z,102006.78
2023-11-23T08:04:35.221Z,102016.56
2023-11-23T08:07:02.747Z,102014.03
2023-11-23T08:09:30.255Z,102005.09
2023-11-23T08:11:58.422Z,102016.38
2023-11-23T08:14:25.205Z,102014.88
2023-11-23T08:16:52.049Z,102029.91
2023-11-23T08:19:19.555Z,102024.50
2023-11-23T08:21:49.160Z,102014.94
2023-11-23T08:24:18.164Z,102013.59
2023-11-23T08:26:45.401Z,102009.19
2023-11-23T08:29:12.908Z,102006.19
2023-11-23T08:31:40.930Z,102009.81
2023-11-23T08:34:09.151Z,102012.06
2023-11-23T08:36:37.327Z,102010.66
2023-11-23T08:39:06.260Z,102007.28
2023-11-23T08:41:33.241Z,102010.81
2023-11-23T08:44:00.919Z,102009.84
2023-11-23T08:46:28.569Z,102017.47
2023-11-23T08:48:55.860Z,102019.59
2023-11-23T08:51:23.601Z,102025.19
2023-11-23T08:53:51.199Z,102020.19
2023-11-23T08:56:18.492Z,102016.81
2023-11-23T08:58:45.573Z,102019.72
2023-11-23T09:01:12.758Z,102009.38
2023-11-23T09:03:39.965Z,102006.09
2023-11-23T09:06:07.194Z,102005.03
2023-11-23T09:08:34.046Z,102004.38
2023-11-23T09:11:00.786Z,102002.16
2023-11-23T09:13:28.110Z,102007.00
2023-11-23T09:15:55.518Z,102018.78
2023-11-23T09:18:23.289Z,102015.22
2023-11-23T09:21:01.074Z,102015.53
2023-11-23T09:23:29.271Z,102004.88
2023-11-23T09:25:56.341Z,102007.00
2023-11-23T09:28:23.516Z,102005.69
2023-11-23T09:30:50.310Z,102009.63
2023-11-23T09:33:20.208Z,102010.38
2023-11-23T09:35:47.770Z,102008.66
2023-11-23T09:38:14.731Z,101996.56
2023-11-23T09:40:44.647Z,102009.28
2023-11-23T09:43:12.243Z,102006.69
2023-11-23T09:45:39.928Z,102003.00
2023-11-23T09:48:08.745Z,102002.41
2023-11-23T09:50:39.017Z,101999.22
2023-11-23T09:53:09.254Z,102004.63
2023-11-23T09:55:36.260Z,101998.88
2023-11-23T09:58:05.893Z,101991.50
2023-11-23T10:00:36.522Z,101993.50
2023-11-23T10:03:08.383Z,101994.97
2023-11-23T10:05:35.960Z,101988.53
2023-11-23T10:08:03.727Z,101980.66
2023-11-23T10:10:30.863Z,101982.09
2023-11-23T10:12:57.635Z,101972.72
2023-11-23T10:15:27.076Z,101972.59
2023-11-23T10:17:53.878Z,101969.75
2023-11-23T10:20:22.536Z,101975.47
2023-11-23T10:22:50.553Z,101970.34
2023-11-23T10:25:30.473Z,101957.81
2023-11-23T10:27:57.395Z,101954.78
2023-11-23T10:30:28.988Z,101949.00
2023-11-23T10:32:57.460Z,101946.91
2023-11-23T10:35:29.519Z,101949.53
2023-11-23T10:37:56.971Z,101940.41
2023-11-23T10:40:25.581Z,101933.13
2023-11-23T10:42:54.002Z,101932.38
2023-11-23T10:45:22.867Z,101923.97
2023-11-23T10:47:52.603Z,101907.47
2023-11-23T10:50:20.734Z,101906.03
2023-11-23T10:52:48.442Z,101899.59
2023-11-23T10:55:15.336Z,101896.88
2023-11-23T10:57:53.226Z,101907.25
2023-11-23T11:00:24.588Z,101905.81
2023-11-23T11:02:54.044Z,101895.41
2023-11-23T11:05:29.728Z,101893.63
2023-11-23T11:08:02.588Z,101890.16
2023-11-23T11:10:33.519Z,101878.59
2023-11-23T11:13:14.393Z,101873.75
2023-11-23T11:15:56.640Z,101877.63
2023-11-23T11:18:28.166Z,101869.75
2023-11-23T11:21:15.684Z,101865.78
2023-11-23T11:23:46.329Z,101852.84
2023-11-23T11:26:19.308Z,101845.91
2023-11-23T11:28:55.181Z,101834.34
2023-11-23T11:31:40.653Z,101834.53
2023-11-23T11:34:24.022Z,101818.91
2023-11-23T11:37:05.141Z,101814.16
2023-11-23T11:39:33.056Z,101806.19
2023-11-23T11:42:04.926Z,101800.91
2023-11-23T11:44:34.687Z,101806.19
2023-11-23T11:47:02.671Z,101798.53
2023-11-23T11:49:29.684Z,101798.63
2023-11-23T11:51:56.608Z,101786.81
2023-11-23T11:54:25.175Z,101782.41
2023-11-23T11:56:52.870Z,101786.81
2023-11-23T11:59:25.116Z,101789.75
2023-11-23T12:01:53.032Z,101788.63
2023-11-23T12:04:21.295Z,101783.75
2023-11-23T12:06:54.390Z,101782.41
2023-11-23T12:09:34.065Z,101776.28
2023-11-23T12:12:06.875Z,101762.28
2023-11-23T12:14:35.284Z,101767.66
2023-11-23T12:17:13.170Z,101761.16
2023-11-23T12:19:52.800Z,101757.56
2023-11-23T12:22:24.428Z,101743.72
2023-11-23T12:24:52.406Z,101740.97
2023-11-23T12:27:21.919Z,101738.69
2023-11-23T12:29:49.701Z,101727.72
2023-11-23T12:32:17.945Z,101730.75
2023-11-23T12:34:44.902Z,101725.84
2023-11-23T12:37:11.723Z,101717.31
2023-11-23T12:39:39.116Z,101717.09
2023-11-23T12:42:06.057Z,101714.47
2023-11-23T12:44:36.739Z,101698.38
2023-11-23T12:47:04.383Z,101700.41
2023-11-23T12:49:31.401Z,101701.22
2023-11-23T12:51:59.848Z,101697.19
2023-11-23T12:55:08.231Z,101692.41
2023-11-23T12:57:35.416Z,101692.16
2023-11-23T13:00:03.624Z,101689.66
2023-11-23T13:02:30.853Z,101680.69
2023-11-23T13:04:59.178Z,101670.31
2023-11-23T13:07:27.325Z,101663.00
2023-11-23T13:09:54.189Z,101664.22
2023-11-23T13:12:21.400Z,101660.84
2023-11-23T13:14:51.026Z,101649.28
2023-11-23T13:17:20.888Z,101645.94
2023-11-23T13:19:49.188Z,101645.13
2023-11-23T13:22:17.091Z,101642.50
2023-11-23T13:24:44.609Z,101643.19
2023-11-23T13:27:13.424Z,101637.09
2023-11-23T13:29:40.408Z,101641.75
2023-11-23T13:32:08.136Z,101639.00
2023-11-23T13:34:35.799Z,101639.59
2023-11-23T13:37:02.985Z,101631.22
2023-11-23T13:39:32.452Z,101628.97
2023-11-23T13:41:59.259Z,101625.50
2023-11-23T13:44:26.151Z,101615.69
2023-11-23T13:46:53.501Z,101620.72
2023-11-23T13:49:22.193Z,101623.09
2023-11-23T13:51:49.116Z,101617.63
2023-11-23T13:54:16.015Z,101612.25
2023-11-23T13:56:44.080Z,101601.16
2023-11-23T13:59:12.424Z,101602.47
2023-11-23T14:01:40.073Z,101607.09
2023-11-23T14:04:07.787Z,101597.78
2023-11-23T14:06:34.823Z,101589.38
2023-11-23T14:09:03.633Z,101584.84
2023-11-23T14:11:30.454Z,101585.19
2023-11-23T14:13:57.354Z,101581.84
2023-11-23T14:16:24.323Z,101585.88
2023-11-23T14:18:51.333Z,101581.09
2023-11-23T14:21:18.614Z,101575.13
2023-11-23T14:23:50.108Z,101574.75
2023-11-23T14:26:21.632Z,101570.78
2023-11-23T14:28:51.268Z,101570.91
2023-11-23T14:31:20.633Z,101571.88
2023-11-23T14:33:47.782Z,101557.97
2023-11-23T14:36:15.444Z,101556.47
2023-11-23T14:38:42.390Z,101559.22
2023-11-23T14:41:09.839Z,101557.03
2023-11-23T14:43:36.692Z,101549.63
2023-11-23T14:46:03.508Z,101547.19
2023-11-23T14:48:30.405Z,101541.75
2023-11-23T14:50:57.179Z,101544.47
2023-11-23T14:53:28.550Z,101533.59
2023-11-23T14:55:57.062Z,101534.25
2023-11-23T14:58:24.240Z,101539.34
2023-11-23T15:00:54.066Z,101536.31
2023-11-23T15:03:21.268Z,101523.28
2023-11-23T15:05:49.810Z,101528.47
2023-11-23T15:08:17.759Z,101519.06
2023-11-23T15:10:45.954Z,101517.81
2023-11-23T15:13:18.773Z,101512.38
2023-11-23T15:15:49.993Z,101509.09
2023-11-23T15:18:16.870Z,101517.31
2023-11-23T15:20:47.196Z,101512.72
2023-11-23T15:23:14.163Z,101508.22
2023-11-23T15:25:41.008Z,101511.47
2023-11-23T15:28:11.822Z,101508.75
2023-11-23T15:30:41.999Z,101511.25
2023-11-23T15:33:09.374Z,101504.13
2023-11-23T15:35:38.473Z,101501.09
2023-11-23T15:38:06.223Z,101496.56
2023-11-23T15:40:33.121Z,101494.91
2023-11-23T15:42:59.930Z,101484.81
2023-11-23T15:45:26.726Z,101488.38
2023-11-23T15:47:53.844Z,101486.72
2023-11-23T15:50:24.164Z,101496.41
2023-11-23T15:52:56.242Z,101484.59
2023-11-23T15:55:24.739Z,101480.97
2023-11-23T15:57:52.163Z,101480.13
2023-11-23T16:00:25.942Z,101477.97
2023-11-23T16:02:55.740Z,101481.38
2023-11-23T16:05:28.783Z,101484.28
2023-11-23T16:07:56.129Z,101477.66
2023-11-23T16:10:24.024Z,101479.75
2023-11-23T16:12:50.911Z,101476.97
2023-11-23T16:15:17.892Z,101478.44
2023-11-23T16:17:45.565Z,101477.34
2023-11-23T16:20:17.461Z,101475.31
2023-11-23T16:22:47.663Z,101470.81
2023-11-23T16:25:16.376Z,101483.69
2023-11-23T16:27:43.181Z,101484.28
2023-11-23T16:30:13.381Z,101485.22
2023-11-23T16:32:41.700Z,101483.16
2023-11-23T16:35:12.092Z,101485.63
2023-11-23T16:37:39.963Z,101484.56
2023-11-23T16:40:11.754Z,101479.81
2023-11-23T16:42:42.046Z,101471.44
2023-11-23T16:45:13.228Z,101475.53
2023-11-23T16:47:44.086Z,101475.44
2023-11-23T16:50:16.635Z,101470.41
2023-11-23T16:52:43.614Z,101472.38
2023-11-23T16:55:21.116Z,101466.38
2023-11-23T16:57:48.735Z,101460.72
2023-11-23T17:00:22.143Z,101456.22
2023-11-23T17:02:49.437Z,101454.16
2023-11-23T17:05:16.715Z,101457.91
2023-11-23T17:07:43.979Z,101452.28
2023-11-23T17:10:17.595Z,101460.44
2023-11-23T17:12:45.254Z,101452.47
2023-11-23T17:15:13.304Z,101456.13
2023-11-23T17:17:46.232Z,101458.00
2023-11-23T17:20:15.389Z,101453.13
2023-11-23T17:22:46.249Z,101445.94
2023-11-23T17:25:13.578Z,101442.25
2023-11-23T17:27:42.846Z,101430.50
2023-11-23T17:30:10.345Z,101426.94
2023-11-23T17:32:39.850Z,101425.44
2023-11-23T17:35:09.675Z,101431.81
2023-11-23T17:37:37.198Z,101434.69
2023-11-23T17:40:08.221Z,101428.63
2023-11-23T17:42:35.491Z,101416.84
2023-11-23T17:45:02.747Z,101414.31
2023-11-23T17:47:29.772Z,101412.81
2023-11-23T17:50:00.764Z,101400.06
2023-11-23T17:52:27.995Z,101395.78
2023-11-23T17:54:58.685Z,101395.97
2023-11-23T17:57:26.241Z,101396.22
2023-11-23T17:59:57.189Z,101391.78
2023-11-23T18:02:24.761Z,101391.88
2023-11-23T18:04:57.411Z,101393.16
2023-11-23T18:07:25.311Z,101392.44
2023-11-23T18:09:52.467Z,101399.78
2023-11-23T18:12:19.722Z,101403.50
2023-11-23T18:14:46.810Z,101405.47
2023-11-23T18:17:14.017Z,101409.00
2023-11-23T18:19:41.796Z,101416.06
2023-11-23T18:22:09.390Z,101407.84
2023-11-23T18:24:37.013Z,101403.56
2023-11-23T18:27:05.133Z,101404.06
2023-11-23T18:29:32.258Z,101402.28
2023-11-23T18:31:59.373Z,101400.94
2023-11-23T18:34:26.407Z,101404.94
2023-11-23T18:36:53.526Z,101408.22
2023-11-23T18:39:23.905Z,101407.63
2023-11-23T18:41:50.967Z,101412.09
2023-11-23T18:44:18.335Z,101406.88
2023-11-23T18:46:45.637Z,101409.31
2023-11-23T18:49:13.682Z,101401.69
2023-11-23T18:51:41.582Z,101397.53
2023-11-23T18:54:08.983Z,101400.53
2023-11-23T18:56:37.158Z,101392.09
2023-11-23T18:59:08.815Z,101392.63
2023-11-23T19:01:47.746Z,101383.31
2023-11-23T19:04:15.434Z,101381.88
2023-11-23T19:06:54.459Z,101384.63
2023-11-23T19:09:28.804Z,101376.47
2023-11-23T19:11:57.989Z,101387.50
2023-11-23T19:14:28.336Z,101384.22
2023-11-23T19:16:55.591Z,101379.38
2023-11-23T19:19:28.223Z,101382.06
2023-11-23T19:22:03.220Z,101376.19
2023-11-23T19:24:33.493Z,101369.47
2023-11-23T19:27:04.379Z,101370.63
2023-11-23T19:29:52.690Z,101382.91
2023-11-23T19:32:41.412Z,101377.38
2023-11-23T19:35:21.097Z,101372.00
2023-11-23T19:37:56.316Z,101366.09
2023-11-23T19:40:26.792Z,101378.22
2023-11-23T19:43:23.169Z,101360.34
2023-11-23T19:46:09.021Z,101374.91
2023-11-23T19:48:36.625Z,101373.66
2023-11-23T19:51:06.340Z,101371.81
2023-11-23T19:53:41.747Z,101365.28
2023-11-23T19:56:09.763Z,101358.03
2023-11-23T19:58:38.627Z,101354.41
2023-11-23T20:01:09.316Z,101346.59
2023-11-23T20:03:36.556Z,101343.41
2023-11-23T20:06:08.166Z,101353.53
2023-11-23T20:08:48.946Z,101356.28
2023-11-23T20:11:22.765Z,101353.53
2023-11-23T20:14:21.795Z,101351.84
2023-11-23T20:17:51.722Z,101341.16
2023-11-23T20:20:01.796Z,101337.38
2023-11-23T20:22:30.893Z,101323.78
2023-11-23T20:25:08.573Z,101330.06
2023-11-23T20:27:48.574Z,101328.56
2023-11-23T20:30:27.334Z,101327.13
2023-11-23T20:32:54.580Z,101331.00
2023-11-23T20:35:23.599Z,101332.66
2023-11-23T20:37:55.846Z,101328.56
2023-11-23T20:40:24.479Z,101324.94
2023-11-23T20:42:55.260Z,101336.88
2023-11-23T20:45:39.652Z,101333.94
2023-11-23T20:48:06.729Z,101329.50
2023-11-23T20:51:01.936Z,101317.13
2023-11-23T20:53:28.602Z,101314.38
2023-11-23T20:55:58.997Z,101311.69
2023-11-23T20:58:34.836Z,101312.34
2023-11-23T21:01:17.201Z,101315.03
2023-11-23T21:03:44.955Z,101298.41
2023-11-23T21:06:20.149Z,101298.25
2023-11-23T21:08:52.979Z,101291.69
2023-11-23T21:11:24.379Z,101290.66
2023-11-23T21:13:53.870Z,101282.19
2023-11-23T21:16:46.501Z,101285.63
2023-11-23T21:19:14.204Z,101283.94
2023-11-23T21:21:44.397Z,101284.19
2023-11-23T21:24:14.950Z,101290.72
2023-11-23T21:26:42.208Z,101276.03
2023-11-23T21:29:19.349Z,101274.53
2023-11-23T21:31:46.545Z,101279.25
2023-11-23T21:34:57.036Z,101277.38
2023-11-23T21:37:24.088Z,101275.88
2023-11-23T21:39:58.740Z,101274.69
2023-11-23T21:42:26.000Z,101276.03
2023-11-23T21:44:53.283Z,101262.34
2023-11-23T21:47:20.521Z,101258.00
2023-11-23T21:50:10.371Z,101249.00
2023-11-23T21:52:38.568Z,101246.06
2023-11-23T21:55:12.525Z,101234.38
2023-11-23T21:57:47.458Z,101230.50
2023-11-23T22:01:30.443Z,101229.97
2023-11-23T22:03:28.457Z,101218.97
2023-11-23T22:06:00.615Z,101216.97
2023-11-23T22:08:31.124Z,101211.31
2023-11-23T22:11:01.637Z,101207.50
2023-11-23T22:13:33.874Z,101209.63
2023-11-23T22:16:05.845Z,101201.50
2023-11-23T22:18:38.387Z,101208.38
2023-11-23T22:21:15.700Z,101203.81
2023-11-23T22:23:42.687Z,101205.81
2023-11-23T22:26:37.724Z,101203.31
2023-11-23T22:29:03.192Z,101197.69
2023-11-23T22:31:38.401Z,101198.84
2023-11-23T22:34:09.759Z,101195.91
2023-11-23T22:36:47.496Z,101187.28
2023-11-23T22:39:20.632Z,101185.59
2023-11-23T22:41:51.374Z,101181.38
2023-11-23T22:44:20.460Z,101175.72
2023-11-23T22:46:56.389Z,101177.28
2023-11-23T22:49:24.932Z,101161.28
2023-11-23T22:52:20.426Z,101165.41
2023-11-23T22:55:25.350Z,101158.13
2023-11-23T22:58:41.345Z,101156.41
2023-11-23T23:01:39.968Z,101143.63
2023-11-23T23:04:22.096Z,101139.13
2023-11-23T23:06:55.827Z,101142.75
2023-11-23T23:09:34.624Z,101141.66
2023-11-23T23:12:02.079Z,101141.66
2023-11-23T23:14:57.936Z,101141.34
2023-11-23T23:17:30.705Z,101129.50
2023-11-23T23:20:03.646Z,101114.91
2023-11-23T23:22:39.793Z,101100.38
2023-11-23T23:25:10.407Z,101106.47
2023-11-23T23:28:10.379Z,101100.16
2023-11-23T23:30:57.711Z,101097.72
2023-11-23T23:33:28.482Z,101096.72
2023-11-23T23:35:55.875Z,101096.25
2023-11-23T23:38:34.618Z,101098.16
2023-11-23T23:41:11.691Z,101097.38
2023-11-23T23:44:30.136Z,101083.03
2023-11-23T23:47:40.793Z,101079.59
2023-11-23T23:50:58.541Z,101075.22
2023-11-23T23:57:37.589Z,101052.78
